sensor_id;sensor_type;location;lat;lon;timestamp;P1;durP1;ratioP1;P2;durP2;ratioP2
3755;SDS011;1893;52.526;13.360;2023-02-15T00:00:15;46.33;;;20.13;;
3755;SDS011;1893;52.526;13.360;2023-02-15T00:02:41;38.53;;;19.87;;
3755;SDS011;1893;52.526;13.360;2023-02-15T00:05:07;49.93;;;20.97;;
3755;SDS011;1893;52.526;13.360;2023-02-15T00:07:33;45.13;;;20.93;;
3755;SDS011;1893;52.526;13.360;2023-02-15T00:09:59;45.40;;;21.33;;
3755;SDS011;1893;52.526;13.360;2023-02-15T00:12:25;44.83;;;20.33;;
3755;SDS011;1893;52.526;13.360;2023-02-15T00:14:50;49.70;;;20.97;;
3755;SDS011;1893;52.526;13.360;2023-02-15T00:17:16;46.27;;;23.20;;
3755;SDS011;1893;52.526;13.360;2023-02-15T00:19:42;46.73;;;22.17;;
3755;SDS011;1893;52.526;13.360;2023-02-15T00:22:08;42.43;;;21.80;;
3755;SDS011;1893;52.526;13.360;2023-02-15T00:24:33;51.63;;;23.60;;
3755;SDS011;1893;52.526;13.360;2023-02-15T00:26:59;46.33;;;22.00;;
3755;SDS011;1893;52.526;13.360;2023-02-15T00:29:25;44.60;;;21.57;;
3755;SDS011;1893;52.526;13.360;2023-02-15T00:31:51;47.53;;;21.80;;
3755;SDS011;1893;52.526;13.360;2023-02-15T00:34:21;45.87;;;21.90;;
3755;SDS011;1893;52.526;13.360;2023-02-15T00:36:48;49.43;;;22.60;;
3755;SDS011;1893;52.526;13.360;2023-02-15T00:39:15;54.00;;;21.40;;
3755;SDS011;1893;52.526;13.360;2023-02-15T00:41:41;51.10;;;23.17;;
3755;SDS011;1893;52.526;13.360;2023-02-15T00:44:07;48.13;;;23.60;;
3755;SDS011;1893;52.526;13.360;2023-02-15T00:46:33;48.20;;;22.77;;
3755;SDS011;1893;52.526;13.360;2023-02-15T00:48:59;49.13;;;23.80;;
3755;SDS011;1893;52.526;13.360;2023-02-15T00:51:25;46.23;;;22.00;;
3755;SDS011;1893;52.526;13.360;2023-02-15T00:53:51;46.73;;;24.10;;
3755;SDS011;1893;52.526;13.360;2023-02-15T00:56:17;59.00;;;26.60;;
3755;SDS011;1893;52.526;13.360;2023-02-15T00:58:43;46.10;;;22.40;;
3755;SDS011;1893;52.526;13.360;2023-02-15T01:01:10;47.60;;;24.10;;
3755;SDS011;1893;52.526;13.360;2023-02-15T01:03:37;43.83;;;22.07;;
3755;SDS011;1893;52.526;13.360;2023-02-15T01:06:04;57.47;;;23.67;;
3755;SDS011;1893;52.526;13.360;2023-02-15T01:08:30;57.97;;;27.70;;
3755;SDS011;1893;52.526;13.360;2023-02-15T01:10:56;57.63;;;25.53;;
3755;SDS011;1893;52.526;13.360;2023-02-15T01:13:27;53.97;;;24.23;;
3755;SDS011;1893;52.526;13.360;2023-02-15T01:15:53;47.73;;;23.67;;
3755;SDS011;1893;52.526;13.360;2023-02-15T01:18:19;53.87;;;23.77;;
3755;SDS011;1893;52.526;13.360;2023-02-15T01:20:45;51.03;;;24.23;;
3755;SDS011;1893;52.526;13.360;2023-02-15T01:23:12;58.80;;;23.93;;
3755;SDS011;1893;52.526;13.360;2023-02-15T01:25:38;57.73;;;25.57;;
3755;SDS011;1893;52.526;13.360;2023-02-15T01:28:04;56.57;;;25.50;;
3755;SDS011;1893;52.526;13.360;2023-02-15T01:30:30;57.57;;;25.07;;
3755;SDS011;1893;52.526;13.360;2023-02-15T01:32:56;53.37;;;24.50;;
3755;SDS011;1893;52.526;13.360;2023-02-15T01:35:22;54.30;;;25.43;;
3755;SDS011;1893;52.526;13.360;2023-02-15T01:37:48;53.60;;;24.87;;
3755;SDS011;1893;52.526;13.360;2023-02-15T01:40:14;62.10;;;25.80;;
3755;SDS011;1893;52.526;13.360;2023-02-15T01:42:41;56.97;;;26.77;;
3755;SDS011;1893;52.526;13.360;2023-02-15T01:48:14;57.47;;;25.60;;
3755;SDS011;1893;52.526;13.360;2023-02-15T01:50:57;58.30;;;26.20;;
3755;SDS011;1893;52.526;13.360;2023-02-15T01:53:34;55.63;;;27.43;;
3755;SDS011;1893;52.526;13.360;2023-02-15T01:56:23;55.63;;;25.70;;
3755;SDS011;1893;52.526;13.360;2023-02-15T01:58:53;68.00;;;26.37;;
3755;SDS011;1893;52.526;13.360;2023-02-15T02:01:22;63.90;;;27.83;;
3755;SDS011;1893;52.526;13.360;2023-02-15T02:06:26;65.03;;;29.17;;
3755;SDS011;1893;52.526;13.360;2023-02-15T02:08:52;60.07;;;28.10;;
3755;SDS011;1893;52.526;13.360;2023-02-15T02:11:19;60.80;;;28.97;;
3755;SDS011;1893;52.526;13.360;2023-02-15T02:13:45;62.70;;;28.90;;
3755;SDS011;1893;52.526;13.360;2023-02-15T02:16:14;65.67;;;28.83;;
3755;SDS011;1893;52.526;13.360;2023-02-15T02:35:44;60.80;;;27.10;;
3755;SDS011;1893;52.526;13.360;2023-02-15T02:38:23;69.00;;;29.50;;
3755;SDS011;1893;52.526;13.360;2023-02-15T02:41:13;70.03;;;26.23;;
3755;SDS011;1893;52.526;13.360;2023-02-15T02:47:13;65.23;;;28.43;;
3755;SDS011;1893;52.526;13.360;2023-02-15T02:49:30;79.37;;;30.37;;
3755;SDS011;1893;52.526;13.360;2023-02-15T02:52:00;73.23;;;29.10;;
3755;SDS011;1893;52.526;13.360;2023-02-15T02:54:27;76.70;;;29.93;;
3755;SDS011;1893;52.526;13.360;2023-02-15T02:56:53;71.10;;;31.47;;
3755;SDS011;1893;52.526;13.360;2023-02-15T02:59:26;64.60;;;30.13;;
3755;SDS011;1893;52.526;13.360;2023-02-15T03:02:09;74.73;;;30.83;;
3755;SDS011;1893;52.526;13.360;2023-02-15T03:04:41;79.23;;;32.37;;
3755;SDS011;1893;52.526;13.360;2023-02-15T03:07:12;89.47;;;33.07;;
3755;SDS011;1893;52.526;13.360;2023-02-15T03:09:45;80.73;;;33.53;;
3755;SDS011;1893;52.526;13.360;2023-02-15T03:14:52;80.67;;;31.93;;
3755;SDS011;1893;52.526;13.360;2023-02-15T03:17:22;79.23;;;33.10;;
3755;SDS011;1893;52.526;13.360;2023-02-15T03:19:51;86.70;;;32.80;;
3755;SDS011;1893;52.526;13.360;2023-02-15T03:22:24;89.83;;;33.87;;
3755;SDS011;1893;52.526;13.360;2023-02-15T03:25:02;86.17;;;32.73;;
3755;SDS011;1893;52.526;13.360;2023-02-15T03:27:37;80.87;;;31.67;;
3755;SDS011;1893;52.526;13.360;2023-02-15T03:30:10;85.70;;;33.53;;
3755;SDS011;1893;52.526;13.360;2023-02-15T03:32:38;83.33;;;32.33;;
3755;SDS011;1893;52.526;13.360;2023-02-15T03:35:06;85.57;;;32.93;;
3755;SDS011;1893;52.526;13.360;2023-02-15T03:42:51;78.30;;;32.63;;
3755;SDS011;1893;52.526;13.360;2023-02-15T03:45:24;78.40;;;32.20;;
3755;SDS011;1893;52.526;13.360;2023-02-15T03:47:53;82.80;;;30.10;;
3755;SDS011;1893;52.526;13.360;2023-02-15T03:50:23;81.93;;;32.70;;
3755;SDS011;1893;52.526;13.360;2023-02-15T03:53:11;69.03;;;29.40;;
3755;SDS011;1893;52.526;13.360;2023-02-15T03:55:41;77.83;;;29.50;;
3755;SDS011;1893;52.526;13.360;2023-02-15T03:58:10;77.60;;;31.67;;
3755;SDS011;1893;52.526;13.360;2023-02-15T04:00:58;77.10;;;30.40;;
3755;SDS011;1893;52.526;13.360;2023-02-15T04:03:51;81.33;;;30.80;;
3755;SDS011;1893;52.526;13.360;2023-02-15T04:06:25;70.63;;;29.93;;
3755;SDS011;1893;52.526;13.360;2023-02-15T04:08:51;70.97;;;30.73;;
3755;SDS011;1893;52.526;13.360;2023-02-15T04:11:35;71.80;;;30.80;;
3755;SDS011;1893;52.526;13.360;2023-02-15T04:14:01;79.17;;;31.97;;
3755;SDS011;1893;52.526;13.360;2023-02-15T04:16:46;78.70;;;31.70;;
3755;SDS011;1893;52.526;13.360;2023-02-15T04:19:12;78.30;;;32.53;;
3755;SDS011;1893;52.526;13.360;2023-02-15T04:21:56;79.13;;;34.83;;
3755;SDS011;1893;52.526;13.360;2023-02-15T04:24:40;73.50;;;31.43;;
3755;SDS011;1893;52.526;13.360;2023-02-15T04:27:24;85.70;;;33.20;;
3755;SDS011;1893;52.526;13.360;2023-02-15T04:29:50;86.53;;;32.10;;
3755;SDS011;1893;52.526;13.360;2023-02-15T04:32:15;75.40;;;31.70;;
3755;SDS011;1893;52.526;13.360;2023-02-15T04:34:41;78.07;;;32.30;;
3755;SDS011;1893;52.526;13.360;2023-02-15T04:37:06;79.33;;;32.87;;
3755;SDS011;1893;52.526;13.360;2023-02-15T04:39:32;85.67;;;33.73;;
3755;SDS011;1893;52.526;13.360;2023-02-15T04:41:57;70.53;;;31.77;;
3755;SDS011;1893;52.526;13.360;2023-02-15T04:44:23;84.53;;;33.57;;
3755;SDS011;1893;52.526;13.360;2023-02-15T04:46:49;77.70;;;30.83;;
3755;SDS011;1893;52.526;13.360;2023-02-15T04:49:14;89.47;;;32.77;;
3755;SDS011;1893;52.526;13.360;2023-02-15T04:51:40;84.17;;;33.67;;
3755;SDS011;1893;52.526;13.360;2023-02-15T04:54:06;78.43;;;31.40;;
3755;SDS011;1893;52.526;13.360;2023-02-15T04:56:31;80.47;;;31.60;;
3755;SDS011;1893;52.526;13.360;2023-02-15T04:58:59;77.63;;;32.20;;
3755;SDS011;1893;52.526;13.360;2023-02-15T05:01:24;82.57;;;33.20;;
3755;SDS011;1893;52.526;13.360;2023-02-15T05:03:50;89.73;;;33.30;;
3755;SDS011;1893;52.526;13.360;2023-02-15T05:06:15;95.83;;;31.83;;
3755;SDS011;1893;52.526;13.360;2023-02-15T05:08:41;84.17;;;32.30;;
3755;SDS011;1893;52.526;13.360;2023-02-15T05:11:06;75.07;;;30.53;;
3755;SDS011;1893;52.526;13.360;2023-02-15T05:13:32;80.53;;;31.90;;
3755;SDS011;1893;52.526;13.360;2023-02-15T05:15:58;83.07;;;31.73;;
3755;SDS011;1893;52.526;13.360;2023-02-15T05:18:23;81.00;;;31.20;;
3755;SDS011;1893;52.526;13.360;2023-02-15T05:20:49;81.33;;;31.03;;
3755;SDS011;1893;52.526;13.360;2023-02-15T05:23:15;76.60;;;32.10;;
3755;SDS011;1893;52.526;13.360;2023-02-15T05:25:40;88.77;;;32.87;;
3755;SDS011;1893;52.526;13.360;2023-02-15T05:28:29;77.40;;;30.30;;
3755;SDS011;1893;52.526;13.360;2023-02-15T05:33:35;74.60;;;28.80;;
3755;SDS011;1893;52.526;13.360;2023-02-15T05:36:02;85.50;;;32.70;;
3755;SDS011;1893;52.526;13.360;2023-02-15T05:38:28;76.33;;;32.13;;
3755;SDS011;1893;52.526;13.360;2023-02-15T05:40:55;78.73;;;31.47;;
3755;SDS011;1893;52.526;13.360;2023-02-15T05:43:20;83.50;;;30.47;;
3755;SDS011;1893;52.526;13.360;2023-02-15T05:45:46;83.87;;;33.40;;
3755;SDS011;1893;52.526;13.360;2023-02-15T05:48:16;82.30;;;32.60;;
3755;SDS011;1893;52.526;13.360;2023-02-15T05:50:43;98.30;;;37.00;;
3755;SDS011;1893;52.526;13.360;2023-02-15T05:53:08;89.43;;;30.63;;
3755;SDS011;1893;52.526;13.360;2023-02-15T05:55:37;93.47;;;32.73;;
3755;SDS011;1893;52.526;13.360;2023-02-15T05:58:06;82.33;;;36.37;;
3755;SDS011;1893;52.526;13.360;2023-02-15T06:00:33;80.07;;;32.60;;
3755;SDS011;1893;52.526;13.360;2023-02-15T06:02:59;95.60;;;32.90;;
3755;SDS011;1893;52.526;13.360;2023-02-15T06:05:24;94.13;;;31.47;;
3755;SDS011;1893;52.526;13.360;2023-02-15T06:07:50;83.43;;;33.90;;
3755;SDS011;1893;52.526;13.360;2023-02-15T06:10:16;84.50;;;32.70;;
3755;SDS011;1893;52.526;13.360;2023-02-15T06:12:41;80.90;;;31.37;;
3755;SDS011;1893;52.526;13.360;2023-02-15T06:15:09;103.77;;;34.00;;
3755;SDS011;1893;52.526;13.360;2023-02-15T06:17:34;96.33;;;33.00;;
3755;SDS011;1893;52.526;13.360;2023-02-15T06:20:00;86.73;;;33.30;;
3755;SDS011;1893;52.526;13.360;2023-02-15T06:22:26;102.00;;;34.90;;
3755;SDS011;1893;52.526;13.360;2023-02-15T06:24:51;107.77;;;34.80;;
3755;SDS011;1893;52.526;13.360;2023-02-15T06:27:17;112.57;;;35.13;;
3755;SDS011;1893;52.526;13.360;2023-02-15T06:29:42;112.97;;;39.13;;
3755;SDS011;1893;52.526;13.360;2023-02-15T06:32:08;99.73;;;38.30;;
3755;SDS011;1893;52.526;13.360;2023-02-15T06:34:34;107.77;;;37.80;;
3755;SDS011;1893;52.526;13.360;2023-02-15T06:36:59;105.03;;;35.07;;
3755;SDS011;1893;52.526;13.360;2023-02-15T06:39:25;106.13;;;36.23;;
3755;SDS011;1893;52.526;13.360;2023-02-15T06:41:51;101.47;;;37.17;;
3755;SDS011;1893;52.526;13.360;2023-02-15T06:44:16;117.80;;;35.23;;
3755;SDS011;1893;52.526;13.360;2023-02-15T06:46:42;107.93;;;36.43;;
3755;SDS011;1893;52.526;13.360;2023-02-15T06:49:08;115.47;;;36.27;;
3755;SDS011;1893;52.526;13.360;2023-02-15T06:51:33;107.37;;;37.50;;
3755;SDS011;1893;52.526;13.360;2023-02-15T06:53:59;117.60;;;38.83;;
3755;SDS011;1893;52.526;13.360;2023-02-15T06:56:25;110.87;;;37.70;;
3755;SDS011;1893;52.526;13.360;2023-02-15T06:58:50;101.93;;;35.03;;
3755;SDS011;1893;52.526;13.360;2023-02-15T07:01:17;89.77;;;35.17;;
3755;SDS011;1893;52.526;13.360;2023-02-15T07:03:43;132.77;;;35.87;;
3755;SDS011;1893;52.526;13.360;2023-02-15T07:06:09;102.23;;;36.27;;
3755;SDS011;1893;52.526;13.360;2023-02-15T07:08:35;110.60;;;36.83;;
3755;SDS011;1893;52.526;13.360;2023-02-15T07:11:03;144.17;;;37.93;;
3755;SDS011;1893;52.526;13.360;2023-02-15T07:13:48;106.87;;;32.83;;
3755;SDS011;1893;52.526;13.360;2023-02-15T07:16:14;137.83;;;35.80;;
3755;SDS011;1893;52.526;13.360;2023-02-15T07:18:40;109.43;;;36.20;;
3755;SDS011;1893;52.526;13.360;2023-02-15T07:21:06;139.30;;;36.87;;
3755;SDS011;1893;52.526;13.360;2023-02-15T07:23:35;155.73;;;37.30;;
3755;SDS011;1893;52.526;13.360;2023-02-15T07:26:02;132.53;;;36.10;;
3755;SDS011;1893;52.526;13.360;2023-02-15T07:28:28;148.57;;;37.03;;
3755;SDS011;1893;52.526;13.360;2023-02-15T07:30:54;98.63;;;32.10;;
3755;SDS011;1893;52.526;13.360;2023-02-15T07:33:19;125.60;;;37.80;;
3755;SDS011;1893;52.526;13.360;2023-02-15T07:35:52;103.50;;;37.33;;
3755;SDS011;1893;52.526;13.360;2023-02-15T07:38:19;102.50;;;30.90;;
3755;SDS011;1893;52.526;13.360;2023-02-15T07:40:46;109.63;;;34.30;;
3755;SDS011;1893;52.526;13.360;2023-02-15T07:43:12;118.10;;;34.77;;
3755;SDS011;1893;52.526;13.360;2023-02-15T07:45:40;294.93;;;43.57;;
3755;SDS011;1893;52.526;13.360;2023-02-15T07:48:05;173.30;;;38.00;;
3755;SDS011;1893;52.526;13.360;2023-02-15T07:50:31;188.47;;;37.07;;
3755;SDS011;1893;52.526;13.360;2023-02-15T07:52:57;184.90;;;37.40;;
3755;SDS011;1893;52.526;13.360;2023-02-15T07:55:25;132.33;;;36.73;;
3755;SDS011;1893;52.526;13.360;2023-02-15T07:57:51;152.70;;;37.77;;
3755;SDS011;1893;52.526;13.360;2023-02-15T08:00:19;116.50;;;35.20;;
3755;SDS011;1893;52.526;13.360;2023-02-15T08:02:50;160.23;;;33.27;;
3755;SDS011;1893;52.526;13.360;2023-02-15T08:05:37;114.30;;;34.70;;
3755;SDS011;1893;52.526;13.360;2023-02-15T08:08:03;91.10;;;30.93;;
3755;SDS011;1893;52.526;13.360;2023-02-15T08:10:29;103.20;;;33.60;;
3755;SDS011;1893;52.526;13.360;2023-02-15T08:13:13;149.70;;;36.90;;
3755;SDS011;1893;52.526;13.360;2023-02-15T08:15:38;144.63;;;33.57;;
3755;SDS011;1893;52.526;13.360;2023-02-15T08:18:04;121.93;;;32.53;;
3755;SDS011;1893;52.526;13.360;2023-02-15T08:20:30;90.00;;;31.57;;
3755;SDS011;1893;52.526;13.360;2023-02-15T08:22:55;90.27;;;33.43;;
3755;SDS011;1893;52.526;13.360;2023-02-15T08:25:21;97.43;;;34.40;;
3755;SDS011;1893;52.526;13.360;2023-02-15T08:27:47;97.90;;;32.30;;
3755;SDS011;1893;52.526;13.360;2023-02-15T08:30:12;88.90;;;31.80;;
3755;SDS011;1893;52.526;13.360;2023-02-15T08:32:39;112.63;;;32.40;;
3755;SDS011;1893;52.526;13.360;2023-02-15T08:35:04;92.57;;;29.50;;
3755;SDS011;1893;52.526;13.360;2023-02-15T08:37:30;80.20;;;29.87;;
3755;SDS011;1893;52.526;13.360;2023-02-15T08:39:56;88.70;;;30.00;;
3755;SDS011;1893;52.526;13.360;2023-02-15T08:42:21;72.50;;;31.90;;
3755;SDS011;1893;52.526;13.360;2023-02-15T08:44:47;90.57;;;32.60;;
3755;SDS011;1893;52.526;13.360;2023-02-15T08:47:15;92.00;;;34.30;;
3755;SDS011;1893;52.526;13.360;2023-02-15T08:49:41;95.13;;;35.00;;
3755;SDS011;1893;52.526;13.360;2023-02-15T08:52:07;85.90;;;35.00;;
3755;SDS011;1893;52.526;13.360;2023-02-15T08:54:33;96.93;;;38.93;;
3755;SDS011;1893;52.526;13.360;2023-02-15T08:56:59;114.87;;;38.77;;
3755;SDS011;1893;52.526;13.360;2023-02-15T08:59:24;85.93;;;32.10;;
3755;SDS011;1893;52.526;13.360;2023-02-15T09:01:51;72.60;;;30.20;;
3755;SDS011;1893;52.526;13.360;2023-02-15T09:04:17;74.43;;;28.47;;
3755;SDS011;1893;52.526;13.360;2023-02-15T09:06:44;83.50;;;27.03;;
3755;SDS011;1893;52.526;13.360;2023-02-15T09:09:11;72.80;;;26.63;;
3755;SDS011;1893;52.526;13.360;2023-02-15T09:11:40;70.57;;;28.13;;
3755;SDS011;1893;52.526;13.360;2023-02-15T09:14:09;61.10;;;25.63;;
3755;SDS011;1893;52.526;13.360;2023-02-15T09:16:39;83.33;;;27.40;;
3755;SDS011;1893;52.526;13.360;2023-02-15T09:19:06;87.50;;;29.67;;
3755;SDS011;1893;52.526;13.360;2023-02-15T09:21:33;58.00;;;25.13;;
3755;SDS011;1893;52.526;13.360;2023-02-15T09:24:02;59.43;;;25.83;;
3755;SDS011;1893;52.526;13.360;2023-02-15T09:26:30;67.10;;;28.60;;
3755;SDS011;1893;52.526;13.360;2023-02-15T09:28:57;64.60;;;25.97;;
3755;SDS011;1893;52.526;13.360;2023-02-15T09:31:26;61.53;;;25.07;;
3755;SDS011;1893;52.526;13.360;2023-02-15T09:33:54;63.90;;;26.10;;
3755;SDS011;1893;52.526;13.360;2023-02-15T09:36:21;65.40;;;26.60;;
3755;SDS011;1893;52.526;13.360;2023-02-15T09:38:56;55.77;;;24.90;;
3755;SDS011;1893;52.526;13.360;2023-02-15T09:44:08;56.23;;;24.10;;
3755;SDS011;1893;52.526;13.360;2023-02-15T09:55:13;60.27;;;25.67;;
3755;SDS011;1893;52.526;13.360;2023-02-15T09:57:57;54.40;;;25.53;;
3755;SDS011;1893;52.526;13.360;2023-02-15T10:00:33;53.40;;;23.80;;
3755;SDS011;1893;52.526;13.360;2023-02-15T10:11:15;51.70;;;25.07;;
3755;SDS011;1893;52.526;13.360;2023-02-15T10:27:08;48.87;;;22.80;;
3755;SDS011;1893;52.526;13.360;2023-02-15T10:29:39;48.20;;;23.30;;
3755;SDS011;1893;52.526;13.360;2023-02-15T10:32:34;46.43;;;23.80;;
3755;SDS011;1893;52.526;13.360;2023-02-15T10:37:48;40.30;;;21.90;;
3755;SDS011;1893;52.526;13.360;2023-02-15T10:43:55;45.53;;;23.53;;
3755;SDS011;1893;52.526;13.360;2023-02-15T10:46:46;43.17;;;23.93;;
3755;SDS011;1893;52.526;13.360;2023-02-15T11:06:01;37.73;;;25.10;;
3755;SDS011;1893;52.526;13.360;2023-02-15T11:08:29;40.40;;;25.00;;
3755;SDS011;1893;52.526;13.360;2023-02-15T11:11:00;40.70;;;25.33;;
3755;SDS011;1893;52.526;13.360;2023-02-15T11:13:32;37.87;;;24.20;;
3755;SDS011;1893;52.526;13.360;2023-02-15T11:16:02;39.50;;;26.30;;
3755;SDS011;1893;52.526;13.360;2023-02-15T11:18:35;36.10;;;23.63;;
3755;SDS011;1893;52.526;13.360;2023-02-15T11:23:43;40.07;;;25.80;;
3755;SDS011;1893;52.526;13.360;2023-02-15T11:28:59;42.27;;;26.20;;
3755;SDS011;1893;52.526;13.360;2023-02-15T11:31:43;34.77;;;23.63;;
3755;SDS011;1893;52.526;13.360;2023-02-15T11:35:01;35.83;;;24.43;;
3755;SDS011;1893;52.526;13.360;2023-02-15T11:37:18;34.27;;;23.93;;
3755;SDS011;1893;52.526;13.360;2023-02-15T11:39:50;39.50;;;25.43;;
3755;SDS011;1893;52.526;13.360;2023-02-15T11:42:20;40.10;;;24.70;;
3755;SDS011;1893;52.526;13.360;2023-02-15T11:44:55;35.57;;;25.70;;
3755;SDS011;1893;52.526;13.360;2023-02-15T11:47:45;36.83;;;24.50;;
3755;SDS011;1893;52.526;13.360;2023-02-15T11:50:13;34.73;;;25.37;;
3755;SDS011;1893;52.526;13.360;2023-02-15T11:52:41;34.80;;;24.10;;
3755;SDS011;1893;52.526;13.360;2023-02-15T11:55:11;34.23;;;22.83;;
3755;SDS011;1893;52.526;13.360;2023-02-15T11:57:41;35.00;;;24.57;;
3755;SDS011;1893;52.526;13.360;2023-02-15T12:00:12;35.60;;;24.67;;
3755;SDS011;1893;52.526;13.360;2023-02-15T12:05:44;34.60;;;25.67;;
3755;SDS011;1893;52.526;13.360;2023-02-15T12:08:20;33.70;;;23.87;;
3755;SDS011;1893;52.526;13.360;2023-02-15T12:13:32;34.07;;;23.87;;
3755;SDS011;1893;52.526;13.360;2023-02-15T12:15:59;33.10;;;23.20;;
3755;SDS011;1893;52.526;13.360;2023-02-15T12:18:35;32.70;;;24.03;;
3755;SDS011;1893;52.526;13.360;2023-02-15T12:21:03;35.73;;;24.53;;
3755;SDS011;1893;52.526;13.360;2023-02-15T12:23:50;33.07;;;22.93;;
3755;SDS011;1893;52.526;13.360;2023-02-15T12:26:28;32.87;;;22.60;;
3755;SDS011;1893;52.526;13.360;2023-02-15T12:29:12;32.47;;;22.90;;
3755;SDS011;1893;52.526;13.360;2023-02-15T12:31:46;33.80;;;23.80;;
3755;SDS011;1893;52.526;13.360;2023-02-15T12:34:22;28.13;;;21.80;;
3755;SDS011;1893;52.526;13.360;2023-02-15T12:37:00;31.10;;;22.33;;
3755;SDS011;1893;52.526;13.360;2023-02-15T12:39:33;33.77;;;23.20;;
3755;SDS011;1893;52.526;13.360;2023-02-15T12:41:59;30.80;;;23.07;;
3755;SDS011;1893;52.526;13.360;2023-02-15T12:44:52;32.87;;;23.77;;
3755;SDS011;1893;52.526;13.360;2023-02-15T12:47:24;32.07;;;22.90;;
3755;SDS011;1893;52.526;13.360;2023-02-15T12:50:05;32.10;;;22.70;;
3755;SDS011;1893;52.526;13.360;2023-02-15T12:52:42;29.00;;;21.00;;
3755;SDS011;1893;52.526;13.360;2023-02-15T12:55:10;35.83;;;21.03;;
3755;SDS011;1893;52.526;13.360;2023-02-15T13:03:34;33.37;;;22.20;;
3755;SDS011;1893;52.526;13.360;2023-02-15T13:06:02;28.57;;;21.10;;
3755;SDS011;1893;52.526;13.360;2023-02-15T13:08:33;29.77;;;20.70;;
3755;SDS011;1893;52.526;13.360;2023-02-15T13:11:12;32.97;;;21.13;;
3755;SDS011;1893;52.526;13.360;2023-02-15T13:16:19;33.80;;;21.87;;
3755;SDS011;1893;52.526;13.360;2023-02-15T13:18:56;37.27;;;22.60;;
3755;SDS011;1893;52.526;13.360;2023-02-15T13:21:24;26.63;;;20.90;;
3755;SDS011;1893;52.526;13.360;2023-02-15T13:23:59;29.90;;;21.50;;
3755;SDS011;1893;52.526;13.360;2023-02-15T13:26:42;30.37;;;21.33;;
3755;SDS011;1893;52.526;13.360;2023-02-15T13:29:43;33.70;;;22.33;;
3755;SDS011;1893;52.526;13.360;2023-02-15T13:32:10;28.03;;;20.83;;
3755;SDS011;1893;52.526;13.360;2023-02-15T13:34:42;31.50;;;22.07;;
3755;SDS011;1893;52.526;13.360;2023-02-15T13:37:13;28.90;;;21.10;;
3755;SDS011;1893;52.526;13.360;2023-02-15T13:39:59;32.23;;;21.37;;
3755;SDS011;1893;52.526;13.360;2023-02-15T13:42:46;30.83;;;21.30;;
3755;SDS011;1893;52.526;13.360;2023-02-15T13:51:06;31.17;;;21.40;;
3755;SDS011;1893;52.526;13.360;2023-02-15T14:13:12;33.13;;;19.10;;
3755;SDS011;1893;52.526;13.360;2023-02-15T14:15:48;32.07;;;20.80;;
3755;SDS011;1893;52.526;13.360;2023-02-15T14:18:35;27.73;;;17.60;;
3755;SDS011;1893;52.526;13.360;2023-02-15T14:26:40;33.63;;;19.23;;
3755;SDS011;1893;52.526;13.360;2023-02-15T14:34:59;26.73;;;15.73;;
3755;SDS011;1893;52.526;13.360;2023-02-15T14:38:14;27.87;;;17.17;;
3755;SDS011;1893;52.526;13.360;2023-02-15T14:43:11;25.53;;;15.47;;
3755;SDS011;1893;52.526;13.360;2023-02-15T14:46:12;25.90;;;15.60;;
3755;SDS011;1893;52.526;13.360;2023-02-15T14:48:48;22.80;;;15.10;;
3755;SDS011;1893;52.526;13.360;2023-02-15T15:07:37;28.07;;;18.20;;
3755;SDS011;1893;52.526;13.360;2023-02-15T15:12:42;34.40;;;17.97;;
3755;SDS011;1893;52.526;13.360;2023-02-15T15:17:59;30.57;;;18.30;;
3755;SDS011;1893;52.526;13.360;2023-02-15T15:25:50;28.13;;;17.10;;
3755;SDS011;1893;52.526;13.360;2023-02-15T15:33:49;30.33;;;17.33;;
3755;SDS011;1893;52.526;13.360;2023-02-15T15:43:24;27.07;;;16.90;;
3755;SDS011;1893;52.526;13.360;2023-02-15T15:51:39;26.90;;;16.47;;
3755;SDS011;1893;52.526;13.360;2023-02-15T15:53:52;26.60;;;16.00;;
3755;SDS011;1893;52.526;13.360;2023-02-15T15:56:20;32.40;;;16.20;;
3755;SDS011;1893;52.526;13.360;2023-02-15T15:58:57;31.77;;;18.10;;
3755;SDS011;1893;52.526;13.360;2023-02-15T16:01:27;30.87;;;17.87;;
3755;SDS011;1893;52.526;13.360;2023-02-15T16:04:00;31.73;;;18.47;;
3755;SDS011;1893;52.526;13.360;2023-02-15T16:06:36;34.63;;;19.30;;
3755;SDS011;1893;52.526;13.360;2023-02-15T16:09:20;32.30;;;17.90;;
3755;SDS011;1893;52.526;13.360;2023-02-15T16:11:52;31.73;;;19.50;;
3755;SDS011;1893;52.526;13.360;2023-02-15T16:14:36;35.90;;;19.80;;
3755;SDS011;1893;52.526;13.360;2023-02-15T16:17:06;30.90;;;18.27;;
3755;SDS011;1893;52.526;13.360;2023-02-15T16:19:39;31.93;;;18.37;;
3755;SDS011;1893;52.526;13.360;2023-02-15T16:22:10;33.27;;;17.00;;
3755;SDS011;1893;52.526;13.360;2023-02-15T16:25:05;34.60;;;18.80;;
3755;SDS011;1893;52.526;13.360;2023-02-15T16:27:42;32.43;;;18.33;;
3755;SDS011;1893;52.526;13.360;2023-02-15T16:32:53;31.70;;;18.80;;
3755;SDS011;1893;52.526;13.360;2023-02-15T16:35:31;36.33;;;21.70;;
3755;SDS011;1893;52.526;13.360;2023-02-15T16:37:57;78.77;;;38.13;;
3755;SDS011;1893;52.526;13.360;2023-02-15T16:42:48;31.80;;;20.07;;
3755;SDS011;1893;52.526;13.360;2023-02-15T16:45:16;44.40;;;20.27;;
3755;SDS011;1893;52.526;13.360;2023-02-15T16:47:48;34.00;;;19.03;;
3755;SDS011;1893;52.526;13.360;2023-02-15T16:50:20;31.60;;;18.60;;
3755;SDS011;1893;52.526;13.360;2023-02-15T16:52:57;31.03;;;18.13;;
3755;SDS011;1893;52.526;13.360;2023-02-15T16:55:27;32.93;;;18.20;;
3755;SDS011;1893;52.526;13.360;2023-02-15T16:58:04;32.60;;;18.67;;
3755;SDS011;1893;52.526;13.360;2023-02-15T17:00:33;32.00;;;17.70;;
3755;SDS011;1893;52.526;13.360;2023-02-15T17:03:03;33.67;;;18.10;;
3755;SDS011;1893;52.526;13.360;2023-02-15T17:05:42;36.73;;;19.50;;
3755;SDS011;1893;52.526;13.360;2023-02-15T17:08:16;30.10;;;18.30;;
3755;SDS011;1893;52.526;13.360;2023-02-15T17:13:24;35.60;;;18.00;;
3755;SDS011;1893;52.526;13.360;2023-02-15T17:16:35;40.73;;;19.97;;
3755;SDS011;1893;52.526;13.360;2023-02-15T17:18:48;33.03;;;18.40;;
3755;SDS011;1893;52.526;13.360;2023-02-15T17:21:17;31.30;;;17.20;;
3755;SDS011;1893;52.526;13.360;2023-02-15T17:23:45;66.77;;;29.37;;
3755;SDS011;1893;52.526;13.360;2023-02-15T17:26:20;50.80;;;27.17;;
3755;SDS011;1893;52.526;13.360;2023-02-15T17:28:49;37.33;;;20.80;;
3755;SDS011;1893;52.526;13.360;2023-02-15T17:31:17;81.50;;;39.63;;
3755;SDS011;1893;52.526;13.360;2023-02-15T17:33:44;52.93;;;27.43;;
3755;SDS011;1893;52.526;13.360;2023-02-15T17:36:17;42.77;;;22.30;;
3755;SDS011;1893;52.526;13.360;2023-02-15T17:39:00;39.17;;;21.40;;
3755;SDS011;1893;52.526;13.360;2023-02-15T17:41:27;40.07;;;23.20;;
3755;SDS011;1893;52.526;13.360;2023-02-15T17:43:54;36.63;;;20.87;;
3755;SDS011;1893;52.526;13.360;2023-02-15T17:46:20;36.00;;;20.80;;
3755;SDS011;1893;52.526;13.360;2023-02-15T17:48:50;43.83;;;22.67;;
3755;SDS011;1893;52.526;13.360;2023-02-15T17:51:18;35.50;;;20.63;;
3755;SDS011;1893;52.526;13.360;2023-02-15T17:53:45;37.33;;;19.73;;
3755;SDS011;1893;52.526;13.360;2023-02-15T17:56:30;33.57;;;19.77;;
3755;SDS011;1893;52.526;13.360;2023-02-15T17:58:59;39.37;;;20.20;;
3755;SDS011;1893;52.526;13.360;2023-02-15T18:01:25;41.57;;;22.27;;
3755;SDS011;1893;52.526;13.360;2023-02-15T18:04:11;39.67;;;21.67;;
3755;SDS011;1893;52.526;13.360;2023-02-15T18:06:57;34.57;;;19.47;;
3755;SDS011;1893;52.526;13.360;2023-02-15T18:09:41;37.87;;;19.30;;
3755;SDS011;1893;52.526;13.360;2023-02-15T18:12:29;38.83;;;19.57;;
3755;SDS011;1893;52.526;13.360;2023-02-15T18:14:57;35.73;;;19.73;;
3755;SDS011;1893;52.526;13.360;2023-02-15T18:17:35;41.03;;;21.27;;